Baker, Montana
Current Conditions -  °F | °C
As of 6:26 AM on Thursday 27 Nov 2014 (Local Time) from KBHK Reporting Station
Light Snow Light Snow  
Wind Chill:   Ceiling: 2000
Heat Index: 22°   Visibility: 1.2mi
Dew Point: 18°   Wind: 20mph
Humidity: 85%   Direction: 140°SE
Pressure: 30.07"   Gusts: 24mph
Location:  46.37°N, 104.28°W
Report Text: KBHK 271326Z AUTO 14017G21KT 1 1/4SM -SN BR BKN020 BKN026 OVC038 M06/M08 A3007 RMK AO2 P0000 T10561078
Loading
Personal Weather Stations






























Interactive Weather Map New forecast layout! Learn more

10-Day Weather Forecast

Advertisements
Track Severe Weather on mobile